Time;durP1;ratioP1;P1;durP2;ratioP2;P2;SDS_P1;SDS_P2;PMS_P1;PMS_P2;Temp;Humidity;BMP_temperature;BMP_pressure;BME280_temperature;BME280_humidity;BME280_pressure;Samples;Min_cycle;Max_cycle;Signal;HPM_P1;HPM_P2
2022/06/13 00:01:11;;;;;;;;;;;14.10;99.90;;;;;;5031476;28;19923;-76
2022/06/13 00:03:37;;;;;;;;;;;14.20;99.90;;;;;;5083175;28;19955;-75
2022/06/13 00:06:02;;;;;;;;;;;14.20;99.90;;;;;;5082983;28;20013;-75
2022/06/13 00:08:28;;;;;;;;;;;14.10;99.90;;;;;;5048784;28;19931;-75
2022/06/13 00:10:54;;;;;;;;;;;14.10;99.90;;;;;;5092176;28;19908;-75
2022/06/13 00:13:19;;;;;;;;;;;14.10;99.90;;;;;;5081302;28;19928;-75
2022/06/13 00:15:45;;;;;;;;;;;14.10;99.90;;;;;;5079306;28;19923;-75
2022/06/13 00:18:10;;;;;;;;;;;14.10;99.90;;;;;;5050452;28;19916;-75
2022/06/13 00:20:37;;;;;;;;;;;14.20;99.90;;;;;;5054605;28;19942;-75
2022/06/13 00:23:02;;;;;;;;;;;14.20;99.90;;;;;;5094056;28;19915;-76
2022/06/13 00:25:28;;;;;;;;;;;14.20;99.90;;;;;;5035867;28;19923;-75
2022/06/13 00:27:53;;;;;;;;;;;14.20;99.90;;;;;;5091797;28;19912;-75
2022/06/13 00:30:19;;;;;;;;;;;14.20;99.90;;;;;;5065146;28;19920;-75
2022/06/13 00:32:45;;;;;;;;;;;14.20;99.90;;;;;;5088369;28;19916;-75
2022/06/13 00:35:10;;;;;;;;;;;14.20;99.90;;;;;;5093278;28;19924;-75
2022/06/13 00:37:36;;;;;;;;;;;14.20;99.90;;;;;;5089608;28;19997;-75
2022/06/13 00:40:02;;;;;;;;;;;14.30;99.90;;;;;;5079574;28;19916;-75
2022/06/13 00:42:27;;;;;;;;;;;14.30;99.90;;;;;;5088360;28;19908;-75
2022/06/13 00:45:11;;;;;;;;;;;14.20;99.90;;;;;;5090601;28;19916;-75
2022/06/13 00:47:39;;;;;;;;;;;14.20;99.90;;;;;;5089230;28;19912;-75
2022/06/13 00:50:06;;;;;;;;;;;14.20;99.90;;;;;;5090159;28;20218;-75
2022/06/13 00:52:40;;;;;;;;;;;14.20;99.90;;;;;;5094768;28;19962;-76
2022/06/13 00:55:08;;;;;;;;;;;14.30;99.90;;;;;;5075490;28;20354;-76
2022/06/13 00:57:34;;;;;;;;;;;14.30;99.90;;;;;;5088611;28;19956;-75
2022/06/13 01:00:01;;;;;;;;;;;14.30;99.90;;;;;;5085666;28;19960;-76
2022/06/13 01:02:27;;;;;;;;;;;14.30;99.90;;;;;;5085153;28;19912;-75
2022/06/13 01:04:53;;;;;;;;;;;14.30;99.90;;;;;;5062651;28;19918;-75
2022/06/13 01:07:20;;;;;;;;;;;14.30;99.90;;;;;;5089934;28;20006;-75
2022/06/13 01:12:30;;;;;;;;;;;14.30;99.90;;;;;;5078418;28;20277;-75
2022/06/13 01:15:02;;;;;;;;;;;14.30;99.90;;;;;;5083248;28;19916;-75
2022/06/13 01:17:27;;;;;;;;;;;14.30;99.90;;;;;;5084825;28;19918;-75
2022/06/13 01:19:56;;;;;;;;;;;14.20;99.90;;;;;;5075235;28;19912;-74
2022/06/13 01:22:35;;;;;;;;;;;14.30;99.90;;;;;;5072198;28;19919;-75
2022/06/13 01:25:00;;;;;;;;;;;14.30;99.90;;;;;;5090028;28;19912;-75
2022/06/13 01:27:45;;;;;;;;;;;14.20;99.90;;;;;;5071475;28;20311;-75
2022/06/13 01:30:11;;;;;;;;;;;14.20;99.90;;;;;;5088528;28;20070;-75
2022/06/13 01:32:45;;;;;;;;;;;14.20;99.90;;;;;;5085567;28;20370;-75
2022/06/13 01:35:17;;;;;;;;;;;14.10;99.90;;;;;;5071292;28;19920;-75
2022/06/13 01:37:42;;;;;;;;;;;14.20;99.90;;;;;;5082718;28;19912;-75
2022/06/13 01:40:20;;;;;;;;;;;14.10;99.90;;;;;;5085495;28;20326;-75
2022/06/13 01:42:58;;;;;;;;;;;14.20;99.90;;;;;;5092124;28;19916;-75
2022/06/13 01:45:30;;;;;;;;;;;14.20;99.90;;;;;;5070868;28;19938;-74
2022/06/13 01:48:00;;;;;;;;;;;14.10;99.90;;;;;;5074068;28;20007;-75
2022/06/13 01:50:45;;;;;;;;;;;14.10;99.90;;;;;;5060418;28;19921;-75
2022/06/13 01:53:30;;;;;;;;;;;14.00;99.90;;;;;;5081274;28;19916;-75
2022/06/13 01:55:58;;;;;;;;;;;14.00;99.90;;;;;;5096174;28;19919;-75
2022/06/13 01:58:28;;;;;;;;;;;14.00;99.90;;;;;;5090643;28;19966;-74
2022/06/13 02:01:09;;;;;;;;;;;13.90;99.90;;;;;;5077030;28;20227;-74
2022/06/13 02:03:39;;;;;;;;;;;14.00;99.90;;;;;;5091072;28;19925;-74
2022/06/13 02:06:13;;;;;;;;;;;13.90;99.90;;;;;;5083947;28;19960;-75
2022/06/13 02:08:44;;;;;;;;;;;14.00;99.90;;;;;;5092360;28;19998;-75
2022/06/13 02:11:13;;;;;;;;;;;14.00;99.90;;;;;;5090933;28;19919;-75
2022/06/13 02:13:51;;;;;;;;;;;13.90;99.90;;;;;;5092946;28;19930;-75
2022/06/13 02:16:25;;;;;;;;;;;13.90;99.90;;;;;;5082871;28;19928;-75
2022/06/13 02:18:56;;;;;;;;;;;13.90;99.90;;;;;;5078174;28;19963;-75
2022/06/13 02:21:24;;;;;;;;;;;13.90;99.90;;;;;;5087722;28;19950;-74
2022/06/13 02:23:51;;;;;;;;;;;13.90;99.90;;;;;;5088903;28;20192;-75
2022/06/13 02:26:20;;;;;;;;;;;13.90;99.90;;;;;;5048057;28;20672;-75
2022/06/13 02:28:51;;;;;;;;;;;13.90;99.90;;;;;;5093026;28;19999;-75
2022/06/13 02:31:20;;;;;;;;;;;13.80;99.90;;;;;;5090537;28;20286;-74
2022/06/13 02:33:46;;;;;;;;;;;13.80;99.90;;;;;;5073737;28;19919;-76
2022/06/13 02:36:18;;;;;;;;;;;13.80;99.90;;;;;;5072494;28;19913;-74
2022/06/13 02:38:49;;;;;;;;;;;13.80;99.90;;;;;;5078192;28;19919;-75
2022/06/13 02:41:17;;;;;;;;;;;13.90;99.90;;;;;;5074480;28;20227;-75
2022/06/13 02:43:55;;;;;;;;;;;13.80;99.90;;;;;;5073463;28;19977;-75
2022/06/13 02:46:25;;;;;;;;;;;13.80;99.90;;;;;;5075998;28;19919;-75
2022/06/13 02:49:10;;;;;;;;;;;13.80;99.90;;;;;;5075764;28;19916;-74
2022/06/13 02:51:40;;;;;;;;;;;13.80;99.90;;;;;;5096685;28;19998;-75
2022/06/13 02:54:07;;;;;;;;;;;13.90;99.90;;;;;;5081991;28;19916;-75
2022/06/13 02:57:35;;;;;;;;;;;13.90;99.90;;;;;;5087339;28;19916;-75
2022/06/13 02:59:42;;;;;;;;;;;13.90;99.90;;;;;;5070897;28;19966;-75
2022/06/13 03:02:11;;;;;;;;;;;13.90;99.90;;;;;;5075300;28;19990;-75
2022/06/13 03:04:40;;;;;;;;;;;14.00;99.90;;;;;;5081995;28;19912;-75
2022/06/13 03:07:08;;;;;;;;;;;14.00;99.90;;;;;;5084319;28;19920;-76
2022/06/13 03:09:47;;;;;;;;;;;14.00;99.90;;;;;;5088222;28;19912;-75
2022/06/13 03:12:16;;;;;;;;;;;14.00;99.90;;;;;;5070803;28;19923;-76
2022/06/13 03:14:45;;;;;;;;;;;14.00;99.90;;;;;;5085422;28;19924;-75
2022/06/13 03:17:10;;;;;;;;;;;14.00;99.90;;;;;;5092880;28;19961;-75
2022/06/13 03:19:42;;;;;;;;;;;14.00;99.90;;;;;;5085183;28;19916;-74
2022/06/13 03:22:08;;;;;;;;;;;14.00;99.90;;;;;;5086666;28;19923;-75
2022/06/13 03:24:34;;;;;;;;;;;14.00;99.90;;;;;;5083735;28;19916;-75
2022/06/13 03:27:03;;;;;;;;;;;14.00;99.90;;;;;;5025925;28;19924;-75
2022/06/13 03:29:38;;;;;;;;;;;14.10;99.90;;;;;;5070965;28;19931;-75
2022/06/13 03:32:06;;;;;;;;;;;14.20;99.90;;;;;;5071005;28;19951;-75
2022/06/13 03:34:37;;;;;;;;;;;14.20;99.90;;;;;;5068623;28;19920;-75
2022/06/13 03:37:09;;;;;;;;;;;14.20;99.90;;;;;;5080717;28;19916;-75
2022/06/13 03:39:37;;;;;;;;;;;14.30;99.90;;;;;;5068603;28;19935;-75
2022/06/13 03:42:06;;;;;;;;;;;14.30;99.90;;;;;;5084583;28;19915;-75
2022/06/13 03:44:35;;;;;;;;;;;14.20;99.90;;;;;;5082413;28;20350;-75
2022/06/13 03:47:05;;;;;;;;;;;14.10;99.90;;;;;;5086120;28;19919;-74
2022/06/13 03:49:33;;;;;;;;;;;13.90;99.90;;;;;;5092506;28;20550;-77
2022/06/13 03:52:00;;;;;;;;;;;13.80;99.90;;;;;;5067705;28;19969;-76
2022/06/13 03:54:42;;;;;;;;;;;13.80;99.90;;;;;;5070116;28;19957;-75
2022/06/13 03:57:22;;;;;;;;;;;13.80;99.90;;;;;;5087841;28;19912;-77
2022/06/13 03:59:56;;;;;;;;;;;13.80;99.90;;;;;;5071032;28;19912;-75
2022/06/13 04:02:24;;;;;;;;;;;13.80;99.90;;;;;;5088523;28;20303;-75
2022/06/13 04:04:50;;;;;;;;;;;13.70;99.90;;;;;;5080042;28;20330;-76
2022/06/13 04:07:17;;;;;;;;;;;13.80;99.90;;;;;;5065665;28;19909;-75
2022/06/13 04:09:43;;;;;;;;;;;13.80;99.90;;;;;;5072992;28;19920;-74
2022/06/13 04:12:24;;;;;;;;;;;13.80;99.90;;;;;;5093266;28;20226;-75
2022/06/13 04:14:52;;;;;;;;;;;13.70;99.90;;;;;;5087420;28;19923;-76
2022/06/13 04:17:36;;;;;;;;;;;13.70;99.90;;;;;;5088457;28;19923;-75
2022/06/13 04:20:01;;;;;;;;;;;13.70;99.90;;;;;;5091138;28;19909;-76
2022/06/13 04:22:36;;;;;;;;;;;13.80;99.90;;;;;;5072548;28;19985;-75
2022/06/13 04:25:04;;;;;;;;;;;13.80;99.90;;;;;;5082508;28;20318;-75
2022/06/13 04:27:45;;;;;;;;;;;13.80;99.90;;;;;;5085100;28;19956;-74
2022/06/13 04:30:17;;;;;;;;;;;13.80;99.90;;;;;;5094431;28;19919;-74
2022/06/13 04:32:51;;;;;;;;;;;13.90;99.90;;;;;;5091320;28;19916;-75
2022/06/13 04:35:17;;;;;;;;;;;13.80;99.90;;;;;;5089163;28;20007;-75
2022/06/13 04:37:43;;;;;;;;;;;13.90;99.90;;;;;;5082573;28;20007;-76
2022/06/13 04:40:12;;;;;;;;;;;14.00;99.90;;;;;;5075911;28;19926;-74
2022/06/13 04:42:39;;;;;;;;;;;14.00;99.90;;;;;;5077314;28;19985;-75
2022/06/13 04:45:23;;;;;;;;;;;14.00;99.90;;;;;;5071133;28;19912;-75
2022/06/13 04:47:50;;;;;;;;;;;14.10;99.90;;;;;;5049974;28;19920;-75
2022/06/13 04:50:18;;;;;;;;;;;14.20;99.90;;;;;;5090677;28;20310;-76
2022/06/13 04:52:44;;;;;;;;;;;14.20;99.90;;;;;;4967169;28;19915;-75
2022/06/13 04:55:17;;;;;;;;;;;14.20;99.90;;;;;;4976839;28;19924;-75
2022/06/13 04:57:43;;;;;;;;;;;14.20;99.90;;;;;;4977940;28;19925;-75
2022/06/13 05:00:09;;;;;;;;;;;14.30;99.90;;;;;;4978339;28;19966;-75
2022/06/13 05:02:46;;;;;;;;;;;14.30;99.90;;;;;;4960042;28;19920;-75
2022/06/13 05:05:38;;;;;;;;;;;14.40;99.90;;;;;;4959586;28;19960;-73
2022/06/13 05:08:21;;;;;;;;;;;14.50;99.90;;;;;;4974090;28;19916;-75
2022/06/13 05:10:47;;;;;;;;;;;14.60;99.90;;;;;;4972527;28;19915;-75
2022/06/13 05:13:13;;;;;;;;;;;14.60;99.90;;;;;;4959331;28;19924;-74
2022/06/13 05:15:38;;;;;;;;;;;14.60;99.90;;;;;;4963287;28;20240;-74
2022/06/13 05:18:23;;;;;;;;;;;14.60;99.90;;;;;;4977476;28;20050;-74
2022/06/13 05:21:07;;;;;;;;;;;14.70;99.90;;;;;;4983505;28;19915;-74
2022/06/13 05:23:33;;;;;;;;;;;14.70;99.90;;;;;;4985340;28;19923;-74
2022/06/13 05:26:00;;;;;;;;;;;14.60;99.90;;;;;;4985017;28;19916;-74
2022/06/13 05:28:27;;;;;;;;;;;14.60;99.90;;;;;;4983978;28;19920;-75
2022/06/13 05:30:57;;;;;;;;;;;14.60;99.90;;;;;;4984826;28;19951;-74
2022/06/13 05:33:32;;;;;;;;;;;14.60;99.90;;;;;;4964524;28;24189;-76
2022/06/13 05:36:00;;;;;;;;;;;14.60;99.90;;;;;;4982421;28;19924;-75
2022/06/13 05:38:43;;;;;;;;;;;14.60;99.90;;;;;;4978372;28;19992;-75
2022/06/13 05:41:09;;;;;;;;;;;14.60;99.90;;;;;;4978991;28;19942;-75
2022/06/13 05:43:35;;;;;;;;;;;14.60;99.90;;;;;;4971333;28;20220;-75
2022/06/13 05:46:02;;;;;;;;;;;14.60;99.90;;;;;;4977147;28;19920;-75
2022/06/13 05:48:28;;;;;;;;;;;14.60;99.90;;;;;;4962520;28;19916;-76
2022/06/13 05:50:54;;;;;;;;;;;14.60;99.90;;;;;;4983633;28;20303;-74
2022/06/13 05:53:21;;;;;;;;;;;14.70;99.90;;;;;;4980931;28;20703;-74
2022/06/13 05:55:47;;;;;;;;;;;14.80;99.90;;;;;;4965142;28;21286;-74
2022/06/13 05:58:17;;;;;;;;;;;14.90;99.90;;;;;;4982365;28;19916;-74
2022/06/13 06:00:53;;;;;;;;;;;15.00;99.90;;;;;;4981678;28;19989;-75
2022/06/13 06:03:19;;;;;;;;;;;15.10;99.90;;;;;;4978769;28;21140;-75
2022/06/13 06:05:45;;;;;;;;;;;15.00;99.90;;;;;;4982219;28;19916;-75
2022/06/13 06:08:18;;;;;;;;;;;15.10;99.90;;;;;;4957421;28;19990;-74
2022/06/13 06:10:44;;;;;;;;;;;15.00;99.90;;;;;;4983111;28;20816;-77
2022/06/13 06:13:14;;;;;;;;;;;15.00;99.90;;;;;;4980929;28;19967;-79
2022/06/13 06:15:40;;;;;;;;;;;15.00;99.90;;;;;;4982047;28;19934;-74
2022/06/13 06:18:06;;;;;;;;;;;15.10;99.90;;;;;;4983242;28;19917;-80
2022/06/13 06:20:32;;;;;;;;;;;15.20;99.90;;;;;;4981375;28;19916;-74
2022/06/13 06:22:57;;;;;;;;;;;15.20;99.90;;;;;;4980486;28;20983;-73
2022/06/13 06:25:23;;;;;;;;;;;15.20;99.90;;;;;;4973105;28;20036;-77
2022/06/13 06:27:48;;;;;;;;;;;15.20;99.90;;;;;;4978394;28;19970;-76
2022/06/13 06:30:15;;;;;;;;;;;15.20;99.90;;;;;;4981580;28;19949;-75
2022/06/13 06:32:41;;;;;;;;;;;15.20;99.90;;;;;;4980841;28;19923;-75
2022/06/13 06:35:07;;;;;;;;;;;15.00;99.90;;;;;;4960963;28;21261;-83
2022/06/13 06:37:32;;;;;;;;;;;15.00;99.90;;;;;;4982382;28;19917;-75
2022/06/13 06:39:58;;;;;;;;;;;15.00;99.90;;;;;;4980919;28;19916;-76
2022/06/13 06:42:24;;;;;;;;;;;15.00;99.90;;;;;;4963107;28;20007;-75
2022/06/13 06:44:50;;;;;;;;;;;15.20;99.90;;;;;;4964834;28;20856;-75
2022/06/13 06:47:15;;;;;;;;;;;15.30;99.90;;;;;;4963480;28;19922;-75
2022/06/13 06:49:41;;;;;;;;;;;15.30;99.90;;;;;;4963293;28;20103;-75
2022/06/13 06:52:07;;;;;;;;;;;15.20;99.90;;;;;;4949939;28;21181;-75
2022/06/13 07:00:03;;;;;;;;;;;15.20;99.90;;;;;;4977383;28;19965;-76
2022/06/13 07:02:29;;;;;;;;;;;15.20;99.90;;;;;;4961138;28;20047;-74
2022/06/13 07:04:58;;;;;;;;;;;15.20;99.90;;;;;;4980234;28;19919;-75
2022/06/13 07:07:24;;;;;;;;;;;15.30;99.90;;;;;;4979163;28;20200;-73
2022/06/13 07:09:49;;;;;;;;;;;15.30;99.90;;;;;;4957618;28;19948;-73
2022/06/13 07:12:15;;;;;;;;;;;15.30;99.90;;;;;;4976821;28;19916;-74
2022/06/13 07:14:41;;;;;;;;;;;15.60;99.90;;;;;;4979557;28;20183;-75
2022/06/13 07:17:08;;;;;;;;;;;15.60;99.90;;;;;;4980684;28;20645;-73
2022/06/13 07:19:34;;;;;;;;;;;15.80;99.90;;;;;;4980705;28;20696;-73
2022/06/13 07:22:00;;;;;;;;;;;15.70;99.90;;;;;;4979291;28;19916;-75
2022/06/13 07:24:26;;;;;;;;;;;15.40;99.90;;;;;;4962976;28;20545;-74
2022/06/13 07:26:51;;;;;;;;;;;15.30;99.90;;;;;;4964376;28;19916;-74
2022/06/13 07:29:17;;;;;;;;;;;15.40;99.90;;;;;;4973837;28;19916;-74
2022/06/13 07:31:42;;;;;;;;;;;15.40;99.90;;;;;;5072100;28;20315;-74
2022/06/13 07:34:14;;;;;;;;;;;15.50;99.90;;;;;;5014437;28;19924;-73
2022/06/13 07:36:40;;;;;;;;;;;15.50;99.90;;;;;;4981249;28;19916;-73
2022/06/13 07:39:05;;;;;;;;;;;15.70;99.90;;;;;;4982083;28;20322;-74
2022/06/13 07:41:31;;;;;;;;;;;15.70;99.90;;;;;;4979335;28;19966;-74
2022/06/13 07:43:57;;;;;;;;;;;15.30;99.90;;;;;;4957689;28;19916;-74
2022/06/13 07:46:25;;;;;;;;;;;15.30;99.90;;;;;;4977998;28;19916;-74
2022/06/13 07:48:50;;;;;;;;;;;15.40;99.90;;;;;;4981301;28;20599;-75
2022/06/13 07:51:16;;;;;;;;;;;15.20;99.90;;;;;;4979468;28;19920;-73
2022/06/13 07:53:42;;;;;;;;;;;15.20;99.90;;;;;;4980856;28;19999;-75
2022/06/13 07:56:09;;;;;;;;;;;15.30;99.90;;;;;;4979144;28;19955;-75
2022/06/13 07:58:36;;;;;;;;;;;15.40;99.90;;;;;;4983627;28;20448;-71
2022/06/13 08:01:03;;;;;;;;;;;15.60;99.90;;;;;;4981154;28;19926;-75
2022/06/13 08:03:29;;;;;;;;;;;15.70;99.90;;;;;;4983455;28;19927;-73
2022/06/13 08:05:56;;;;;;;;;;;15.80;99.90;;;;;;4965992;28;19944;-72
2022/06/13 08:08:22;;;;;;;;;;;16.20;99.90;;;;;;4978116;28;20277;-75
2022/06/13 08:10:48;;;;;;;;;;;16.50;99.90;;;;;;4980000;28;19923;-72
2022/06/13 08:13:15;;;;;;;;;;;16.30;99.90;;;;;;4980595;28;20069;-74
2022/06/13 08:15:41;;;;;;;;;;;15.80;99.90;;;;;;4982580;28;19924;-74
2022/06/13 08:18:06;;;;;;;;;;;15.30;99.90;;;;;;4978001;28;19916;-74
2022/06/13 08:20:33;;;;;;;;;;;15.30;99.90;;;;;;4980059;28;19923;-75
2022/06/13 08:23:00;;;;;;;;;;;15.80;99.90;;;;;;4981867;28;19916;-73
2022/06/13 08:25:27;;;;;;;;;;;16.30;99.90;;;;;;4959732;28;19916;-74
2022/06/13 08:27:54;;;;;;;;;;;16.30;99.90;;;;;;4980651;28;19927;-74
2022/06/13 08:30:19;;;;;;;;;;;15.90;99.90;;;;;;4980499;28;19920;-73
2022/06/13 08:32:45;;;;;;;;;;;15.60;99.90;;;;;;4981957;28;19923;-73
2022/06/13 08:35:11;;;;;;;;;;;15.70;99.90;;;;;;4979992;28;20647;-74
2022/06/13 08:37:36;;;;;;;;;;;16.20;99.90;;;;;;4981757;28;19916;-75
2022/06/13 08:40:03;;;;;;;;;;;16.20;99.90;;;;;;4981531;28;20566;-74
2022/06/13 08:42:35;;;;;;;;;;;16.20;99.90;;;;;;4986622;28;19919;-75
2022/06/13 08:45:12;;;;;;;;;;;15.80;99.90;;;;;;4961282;28;19961;-74
2022/06/13 08:47:46;;;;;;;;;;;15.60;99.90;;;;;;4967687;28;20621;-75
2022/06/13 08:50:30;;;;;;;;;;;15.50;99.90;;;;;;4987262;28;19917;-74
2022/06/13 08:52:59;;;;;;;;;;;15.90;99.90;;;;;;4985676;28;19923;-74
2022/06/13 08:55:30;;;;;;;;;;;16.50;99.90;;;;;;4985139;28;19929;-73
2022/06/13 08:58:25;;;;;;;;;;;17.30;99.90;;;;;;4982763;28;19916;-73
2022/06/13 09:00:52;;;;;;;;;;;17.40;99.90;;;;;;4972934;28;19948;-74
2022/06/13 09:03:23;;;;;;;;;;;16.80;99.90;;;;;;4984160;28;24591;-74
2022/06/13 09:05:52;;;;;;;;;;;17.20;99.90;;;;;;4967160;28;19969;-74
2022/06/13 09:08:17;;;;;;;;;;;17.40;99.90;;;;;;4986732;28;20539;-73
2022/06/13 09:11:01;;;;;;;;;;;17.40;99.90;;;;;;4986958;28;20026;-74
2022/06/13 09:13:39;;;;;;;;;;;16.80;99.90;;;;;;4986846;28;19973;-74
2022/06/13 09:16:18;;;;;;;;;;;16.40;99.90;;;;;;4984631;28;20216;-73
2022/06/13 09:18:48;;;;;;;;;;;16.40;99.90;;;;;;4984833;28;20218;-75
2022/06/13 09:21:20;;;;;;;;;;;16.20;99.90;;;;;;4963533;28;20341;-74
2022/06/13 09:23:54;;;;;;;;;;;16.30;99.90;;;;;;5017210;28;20188;-74
2022/06/13 09:26:35;;;;;;;;;;;16.50;99.90;;;;;;5088969;28;19965;-77
2022/06/13 09:29:22;;;;;;;;;;;17.10;99.90;;;;;;5085781;28;20581;-74
2022/06/13 09:31:50;;;;;;;;;;;17.50;99.90;;;;;;5052020;28;20253;-74
2022/06/13 09:34:22;;;;;;;;;;;17.60;99.90;;;;;;5067379;28;20279;-75
2022/06/13 09:37:09;;;;;;;;;;;16.80;99.90;;;;;;5077364;28;20234;-73
2022/06/13 09:39:34;;;;;;;;;;;16.40;99.90;;;;;;5078059;28;20020;-75
2022/06/13 09:42:18;;;;;;;;;;;16.10;99.90;;;;;;5092081;28;19959;-75
2022/06/13 09:44:53;;;;;;;;;;;16.10;99.90;;;;;;5072268;28;20608;-74
2022/06/13 09:47:21;;;;;;;;;;;16.80;99.90;;;;;;5091752;28;19920;-76
2022/06/13 09:49:50;;;;;;;;;;;17.60;99.90;;;;;;5085583;28;19969;-73
2022/06/13 09:52:25;;;;;;;;;;;18.30;99.90;;;;;;5093710;28;20195;-74
2022/06/13 09:54:57;;;;;;;;;;;18.20;99.90;;;;;;5086058;28;19962;-73
2022/06/13 09:57:30;;;;;;;;;;;18.00;99.90;;;;;;5085967;28;19959;-74
2022/06/13 10:00:18;;;;;;;;;;;17.30;99.90;;;;;;5069005;28;19916;-73
2022/06/13 10:02:44;;;;;;;;;;;16.90;99.90;;;;;;5087884;28;19916;-73
2022/06/13 10:05:30;;;;;;;;;;;17.20;99.90;;;;;;5086493;28;19917;-72
2022/06/13 10:07:59;;;;;;;;;;;18.00;99.90;;;;;;5081903;28;19962;-74
2022/06/13 10:10:34;;;;;;;;;;;18.30;99.90;;;;;;5084088;28;19916;-74
2022/06/13 10:13:14;;;;;;;;;;;18.80;99.90;;;;;;5087239;28;19936;-74
2022/06/13 10:15:59;;;;;;;;;;;19.30;99.90;;;;;;5080371;28;19924;-75
2022/06/13 10:18:24;;;;;;;;;;;18.90;99.90;;;;;;5084352;28;19916;-75
2022/06/13 10:20:53;;;;;;;;;;;17.80;99.90;;;;;;5087939;28;19924;-75
2022/06/13 10:23:27;;;;;;;;;;;18.30;99.90;;;;;;5044725;28;19920;-73
2022/06/13 10:25:53;;;;;;;;;;;18.30;99.90;;;;;;5053875;28;19920;-75
2022/06/13 10:28:18;;;;;;;;;;;18.50;99.90;;;;;;5081297;28;19916;-77
2022/06/13 10:30:55;;;;;;;;;;;17.50;99.90;;;;;;5084485;28;20215;-76
2022/06/13 10:33:21;;;;;;;;;;;17.10;99.90;;;;;;5088839;28;19923;-74
2022/06/13 10:35:50;;;;;;;;;;;17.40;99.90;;;;;;5091776;28;19916;-73
2022/06/13 10:38:21;;;;;;;;;;;18.10;99.90;;;;;;5003665;28;19926;-74
2022/06/13 10:40:47;;;;;;;;;;;18.70;99.90;;;;;;4984997;28;19924;-75
2022/06/13 10:43:12;;;;;;;;;;;18.50;99.90;;;;;;4981821;28;20050;-74
2022/06/13 10:45:39;;;;;;;;;;;18.30;99.90;;;;;;4978730;28;19963;-73
2022/06/13 10:48:12;;;;;;;;;;;17.70;99.90;;;;;;4962486;28;19998;-74
2022/06/13 10:50:46;;;;;;;;;;;17.40;99.90;;;;;;4978066;28;19924;-72
2022/06/13 10:53:34;;;;;;;;;;;16.90;99.90;;;;;;4978649;28;21221;-74
2022/06/13 10:56:01;;;;;;;;;;;17.60;99.90;;;;;;4960844;28;20646;-73
2022/06/13 10:58:27;;;;;;;;;;;17.90;99.90;;;;;;4980207;28;19920;-74
2022/06/13 11:01:10;;;;;;;;;;;18.10;99.90;;;;;;4975329;28;19927;-73
2022/06/13 11:03:36;;;;;;;;;;;17.90;99.90;;;;;;4976755;28;19927;-75
2022/06/13 11:06:06;;;;;;;;;;;18.20;99.90;;;;;;4996869;28;19951;-75
2022/06/13 11:08:33;;;;;;;;;;;18.20;99.90;;;;;;4996677;28;19927;-74
2022/06/13 11:10:59;;;;;;;;;;;17.60;99.90;;;;;;4998856;28;19916;-74
2022/06/13 11:13:27;;;;;;;;;;;17.20;99.90;;;;;;5000111;28;20695;-73
2022/06/13 11:24:12;;;;;;;;;;;17.60;99.90;;;;;;4981112;28;19965;-75
2022/06/13 11:29:24;;;;;;;;;;;18.50;99.90;;;;;;4998740;28;20660;-74
2022/06/13 11:31:51;;;;;;;;;;;18.40;99.90;;;;;;4979284;28;19954;-74
2022/06/13 11:34:21;;;;;;;;;;;18.70;99.90;;;;;;4976259;28;19924;-76
2022/06/13 11:37:17;;;;;;;;;;;18.70;99.90;;;;;;4976838;28;19925;-75
2022/06/13 11:39:44;;;;;;;;;;;18.00;99.90;;;;;;4957304;28;19916;-73
2022/06/13 11:42:13;;;;;;;;;;;17.10;99.90;;;;;;4959502;28;19923;-75
2022/06/13 11:44:40;;;;;;;;;;;16.60;99.90;;;;;;4972040;28;19931;-74
2022/06/13 11:47:06;;;;;;;;;;;16.60;99.90;;;;;;4996327;28;19916;-75
2022/06/13 11:49:34;;;;;;;;;;;17.10;99.90;;;;;;4985461;28;20028;-76
2022/06/13 11:52:02;;;;;;;;;;;17.90;99.90;;;;;;4977055;28;19926;-76
2022/06/13 11:54:27;;;;;;;;;;;18.30;99.90;;;;;;4978385;28;24033;-76
2022/06/13 11:57:29;;;;;;;;;;;19.00;99.90;;;;;;4979023;28;19971;-75
2022/06/13 11:59:59;;;;;;;;;;;18.80;99.90;;;;;;4903527;28;19929;-75
2022/06/13 12:02:45;;;;;;;;;;;18.00;99.90;;;;;;4907907;28;20669;-77
2022/06/13 12:05:20;;;;;;;;;;;17.70;99.90;;;;;;4910260;28;20422;-76
2022/06/13 12:07:52;;;;;;;;;;;17.60;99.90;;;;;;4921643;28;19921;-75
2022/06/13 12:10:19;;;;;;;;;;;17.10;99.90;;;;;;4925743;28;20309;-75
2022/06/13 12:12:45;;;;;;;;;;;17.00;99.90;;;;;;4926514;28;19944;-77
2022/06/13 12:15:12;;;;;;;;;;;17.10;99.90;;;;;;4918246;28;20655;-74
2022/06/13 12:17:39;;;;;;;;;;;17.10;99.90;;;;;;4920579;28;19918;-74
2022/06/13 12:20:05;;;;;;;;;;;16.60;99.90;;;;;;4920241;28;20236;-74
2022/06/13 12:22:44;;;;;;;;;;;16.30;99.90;;;;;;4914715;28;19917;-75
2022/06/13 12:25:15;;;;;;;;;;;16.90;99.90;;;;;;4902900;28;19917;-76
2022/06/13 12:27:51;;;;;;;;;;;17.20;99.90;;;;;;4903968;28;19924;-75
2022/06/13 12:30:28;;;;;;;;;;;16.90;99.90;;;;;;4902768;28;20627;-73
2022/06/13 12:33:09;;;;;;;;;;;16.40;99.90;;;;;;4902001;28;20271;-75
2022/06/13 12:35:53;;;;;;;;;;;16.50;99.90;;;;;;4974164;28;23714;-75
2022/06/13 12:38:21;;;;;;;;;;;17.30;99.90;;;;;;4975259;28;19962;-78
2022/06/13 12:40:53;;;;;;;;;;;17.30;99.90;;;;;;4980078;28;20319;-74
2022/06/13 12:43:45;;;;;;;;;;;17.40;99.90;;;;;;4974401;28;20051;-73
2022/06/13 12:46:29;;;;;;;;;;;16.90;99.90;;;;;;5036588;28;19920;-77
2022/06/13 12:49:14;;;;;;;;;;;16.70;99.90;;;;;;5071012;28;19923;-74
2022/06/13 12:52:02;;;;;;;;;;;16.50;99.90;;;;;;5055141;28;20010;-73
2022/06/13 12:54:28;;;;;;;;;;;16.70;99.90;;;;;;4975939;28;19971;-75
2022/06/13 12:56:56;;;;;;;;;;;17.40;99.90;;;;;;4973846;28;19916;-75
2022/06/13 12:59:48;;;;;;;;;;;17.90;99.90;;;;;;4974102;28;19927;-74
2022/06/13 13:02:22;;;;;;;;;;;18.20;99.90;;;;;;4976927;28;19973;-80
2022/06/13 13:04:53;;;;;;;;;;;18.00;99.90;;;;;;4958556;28;20691;-75
2022/06/13 13:07:28;;;;;;;;;;;17.30;99.90;;;;;;4985056;28;19916;-75
2022/06/13 13:10:12;;;;;;;;;;;17.00;99.90;;;;;;4977844;28;20535;-75
2022/06/13 13:12:56;;;;;;;;;;;16.80;99.90;;;;;;4976629;28;21344;-74
2022/06/13 13:15:27;;;;;;;;;;;16.70;99.90;;;;;;4976955;28;20514;-75
2022/06/13 13:18:01;;;;;;;;;;;16.70;99.90;;;;;;4998807;28;19920;-75
2022/06/13 13:20:41;;;;;;;;;;;17.20;99.90;;;;;;4976806;28;19959;-75
2022/06/13 13:23:14;;;;;;;;;;;17.30;99.90;;;;;;4979332;28;20315;-74
2022/06/13 13:25:40;;;;;;;;;;;17.20;99.90;;;;;;4978062;28;19923;-78
2022/06/13 13:28:05;;;;;;;;;;;17.00;99.90;;;;;;4975912;28;19924;-75
2022/06/13 13:30:36;;;;;;;;;;;17.00;99.90;;;;;;4982577;28;19917;-77
2022/06/13 13:33:15;;;;;;;;;;;16.60;99.90;;;;;;4975743;28;19951;-75
2022/06/13 13:35:47;;;;;;;;;;;16.40;99.90;;;;;;4964847;28;20803;-75
2022/06/13 13:38:19;;;;;;;;;;;16.40;99.90;;;;;;4970855;28;19916;-76
2022/06/13 13:40:49;;;;;;;;;;;16.40;99.90;;;;;;4963622;28;20695;-78
2022/06/13 13:43:18;;;;;;;;;;;16.30;99.90;;;;;;4995868;28;20571;-75
2022/06/13 13:45:52;;;;;;;;;;;16.40;99.90;;;;;;5002320;28;20290;-74
2022/06/13 13:48:21;;;;;;;;;;;16.40;99.90;;;;;;5003991;28;24035;-74
2022/06/13 13:50:48;;;;;;;;;;;16.40;99.90;;;;;;4978278;28;19922;-75
2022/06/13 13:53:16;;;;;;;;;;;16.50;99.90;;;;;;4982038;28;19917;-76
2022/06/13 13:55:46;;;;;;;;;;;16.80;99.90;;;;;;5000456;28;20043;-75
2022/06/13 13:58:20;;;;;;;;;;;16.90;99.90;;;;;;4983434;28;20006;-75
2022/06/13 14:01:05;;;;;;;;;;;17.30;99.90;;;;;;4960017;28;19954;-75
2022/06/13 14:03:42;;;;;;;;;;;17.30;99.90;;;;;;4983351;28;20010;-76
2022/06/13 14:06:10;;;;;;;;;;;16.80;99.90;;;;;;5000176;28;20403;-76
2022/06/13 14:08:37;;;;;;;;;;;16.50;99.90;;;;;;4998524;28;24036;-78
2022/06/13 14:11:04;;;;;;;;;;;16.10;99.90;;;;;;4991642;28;19917;-76
2022/06/13 14:13:34;;;;;;;;;;;15.90;99.90;;;;;;4981402;28;19924;-74
2022/06/13 14:16:08;;;;;;;;;;;15.90;99.90;;;;;;5034746;28;19975;-76
2022/06/13 14:18:40;;;;;;;;;;;15.80;99.90;;;;;;5078235;28;20217;-76
2022/06/13 14:21:13;;;;;;;;;;;15.80;99.90;;;;;;5090908;28;19998;-76
2022/06/13 14:23:52;;;;;;;;;;;16.00;99.90;;;;;;5078435;28;20014;-76
2022/06/13 14:26:19;;;;;;;;;;;16.50;99.90;;;;;;5092120;28;19912;-75
2022/06/13 14:28:51;;;;;;;;;;;16.50;99.90;;;;;;5066645;28;19916;-75
2022/06/13 14:31:17;;;;;;;;;;;16.40;99.90;;;;;;5093680;28;19923;-78
2022/06/13 14:36:47;;;;;;;;;;;16.20;99.90;;;;;;5093735;28;20008;-76
2022/06/13 14:39:28;;;;;;;;;;;16.50;99.90;;;;;;5081809;28;19920;-78
2022/06/13 14:42:00;;;;;;;;;;;16.90;99.90;;;;;;5075001;28;19909;-75
2022/06/13 14:44:49;;;;;;;;;;;16.70;99.90;;;;;;5090347;28;19934;-75
2022/06/13 14:47:33;;;;;;;;;;;16.30;99.90;;;;;;5074895;28;20322;-75
2022/06/13 14:49:59;;;;;;;;;;;16.20;99.90;;;;;;5075344;28;19916;-76
2022/06/13 14:52:31;;;;;;;;;;;16.00;99.90;;;;;;5086968;28;19908;-75
2022/06/13 14:55:02;;;;;;;;;;;16.00;99.90;;;;;;5077437;28;19971;-77
2022/06/13 14:57:28;;;;;;;;;;;16.20;99.90;;;;;;5086384;28;19947;-74
2022/06/13 15:00:07;;;;;;;;;;;16.30;99.90;;;;;;5095318;28;19955;-74